Time;durP1;ratioP1;P1;durP2;ratioP2;P2;SDS_P1;SDS_P2;PMS_P1;PMS_P2;Temp;Humidity;BMP_temperature;BMP_pressure;BME280_temperature;BME280_humidity;BME280_pressure;Samples;Min_cycle;Max_cycle;Signal;HPM_P1;HPM_P2
2022/12/07 00:01:21;;;;;;;7.50;1.55;;;20.30;53.80;;;;;;5050529;28;20090;-72
2022/12/07 00:03:49;;;;;;;8.65;1.33;;;20.20;54.00;;;;;;5049434;28;20402;-70
2022/12/07 00:06:17;;;;;;;11.13;2.05;;;20.10;54.00;;;;;;5049610;28;20112;-67
2022/12/07 00:08:44;;;;;;;5.57;1.45;;;20.00;54.00;;;;;;5051258;28;20086;-67
2022/12/07 00:11:17;;;;;;;6.32;1.17;;;20.00;53.70;;;;;;5050948;28;20069;-67
2022/12/07 00:13:44;;;;;;;7.32;1.30;;;20.10;53.90;;;;;;5049648;28;20100;-69
2022/12/07 00:16:14;;;;;;;5.45;1.33;;;20.00;53.80;;;;;;5049960;28;20070;-68
2022/12/07 00:18:41;;;;;;;6.63;1.60;;;19.90;54.20;;;;;;5050870;28;20077;-68
2022/12/07 00:21:11;;;;;;;10.25;1.98;;;19.80;54.50;;;;;;5049659;28;20179;-67
2022/12/07 00:23:39;;;;;;;11.85;2.22;;;19.70;54.90;;;;;;5050231;28;20070;-70
2022/12/07 00:26:12;;;;;;;15.77;2.67;;;19.70;55.10;;;;;;5050974;28;20169;-70
2022/12/07 00:28:39;;;;;;;8.93;2.55;;;19.60;55.30;;;;;;5050027;28;20205;-68
2022/12/07 00:31:09;;;;;;;10.38;2.83;;;19.50;55.40;;;;;;5049385;28;20097;-67
2022/12/07 00:33:36;;;;;;;9.00;2.30;;;19.40;55.70;;;;;;5050286;28;20081;-69
2022/12/07 00:36:05;;;;;;;10.88;2.20;;;19.40;56.10;;;;;;5049514;28;20128;-69
2022/12/07 00:38:34;;;;;;;6.03;2.10;;;19.30;56.10;;;;;;5048219;28;20430;-68
2022/12/07 00:41:03;;;;;;;12.13;1.92;;;19.10;56.60;;;;;;5049673;28;20523;-68
2022/12/07 00:43:29;;;;;;;9.98;2.65;;;19.00;57.10;;;;;;5049287;28;20081;-69
2022/12/07 00:45:56;;;;;;;12.07;2.28;;;19.00;57.70;;;;;;5050333;28;20073;-67
2022/12/07 00:48:23;;;;;;;13.55;2.72;;;19.00;58.40;;;;;;5048382;28;20073;-68
2022/12/07 00:50:50;;;;;;;42.63;17.02;;;18.90;58.40;;;;;;5049228;28;20084;-68
2022/12/07 00:53:17;;;;;;;12.23;2.70;;;18.80;58.80;;;;;;5046872;28;20569;-67
2022/12/07 00:55:44;;;;;;;20.77;7.30;;;18.80;58.80;;;;;;5049032;28;20077;-69
2022/12/07 00:58:11;;;;;;;28.60;6.32;;;18.70;59.10;;;;;;5049664;28;20066;-69
2022/12/07 01:00:39;;;;;;;33.50;3.25;;;18.70;59.70;;;;;;5048948;28;20073;-71
2022/12/07 01:03:08;;;;;;;19.02;3.15;;;18.60;59.60;;;;;;5045635;28;20176;-68
2022/12/07 01:05:35;;;;;;;21.83;3.60;;;18.50;59.90;;;;;;5049761;28;20113;-67
2022/12/07 01:08:01;;;;;;;15.93;2.25;;;18.50;60.00;;;;;;5048172;28;20564;-65
2022/12/07 01:10:30;;;;;;;20.23;2.70;;;18.30;59.90;;;;;;5048864;28;20069;-67
2022/12/07 01:12:56;;;;;;;11.80;2.50;;;18.30;60.30;;;;;;5049765;28;20097;-66
2022/12/07 01:15:23;;;;;;;22.98;3.58;;;18.30;60.00;;;;;;5046086;28;20449;-69
2022/12/07 01:17:50;;;;;;;14.45;3.15;;;18.20;60.00;;;;;;5049802;28;20113;-66
2022/12/07 01:20:16;;;;;;;20.38;2.85;;;18.10;60.00;;;;;;5048566;28;20114;-68
2022/12/07 01:22:43;;;;;;;16.05;3.13;;;18.10;60.50;;;;;;5048929;28;20073;-64
2022/12/07 01:25:11;;;;;;;30.05;3.22;;;18.00;60.80;;;;;;5043322;28;20081;-61
2022/12/07 01:27:38;;;;;;;16.92;3.08;;;17.90;61.00;;;;;;5044480;28;20076;-61
2022/12/07 01:30:07;;;;;;;18.70;3.78;;;17.80;61.70;;;;;;5042303;28;20082;-64
2022/12/07 01:32:34;;;;;;;22.85;4.00;;;17.70;61.90;;;;;;5042181;28;20085;-61
2022/12/07 01:35:00;;;;;;;22.75;3.95;;;17.70;62.10;;;;;;5042631;28;20097;-63
2022/12/07 01:37:27;;;;;;;20.80;3.38;;;17.60;62.50;;;;;;5044634;28;20147;-63
2022/12/07 01:39:53;;;;;;;18.13;3.13;;;17.60;63.40;;;;;;5041854;28;20069;-62
2022/12/07 01:42:20;;;;;;;23.05;4.40;;;17.50;63.40;;;;;;5043873;28;20534;-64
2022/12/07 01:45:31;;;;;;;34.30;5.10;;;17.40;63.50;;;;;;5043493;28;20136;-64
2022/12/07 01:47:58;;;;;;;29.60;4.38;;;17.40;63.80;;;;;;5045875;28;20441;-62
2022/12/07 01:50:31;;;;;;;24.38;5.00;;;17.30;64.70;;;;;;5049203;28;20131;-62
2022/12/07 01:53:00;;;;;;;26.20;5.00;;;17.20;64.30;;;;;;5048501;28;20074;-63
2022/12/07 01:55:27;;;;;;;29.08;6.50;;;17.10;64.50;;;;;;5051614;28;20598;-64
2022/12/07 01:57:55;;;;;;;35.20;7.13;;;17.10;64.90;;;;;;5052733;28;20069;-62
2022/12/07 02:00:22;;;;;;;39.17;9.23;;;17.10;64.80;;;;;;5056002;28;20085;-63
2022/12/07 02:03:07;;;;;;;33.20;8.48;;;17.00;64.70;;;;;;5050694;28;20069;-60
2022/12/07 02:05:35;;;;;;;35.30;8.27;;;16.90;64.40;;;;;;5055407;28;20125;-61
2022/12/07 02:08:03;;;;;;;36.05;8.07;;;16.90;64.90;;;;;;5054343;28;20149;-61
2022/12/07 02:10:31;;;;;;;40.08;8.70;;;16.80;64.30;;;;;;5056754;28;20073;-63
2022/12/07 02:13:06;;;;;;;35.45;7.93;;;16.80;64.90;;;;;;5053264;28;20070;-60
2022/12/07 02:16:03;;;;;;;33.72;7.85;;;16.80;64.90;;;;;;5050974;28;20522;-62
2022/12/07 02:19:05;;;;;;;32.00;7.00;;;16.80;64.90;;;;;;5048685;28;20081;-62
2022/12/07 02:21:34;;;;;;;29.30;7.25;;;16.70;65.20;;;;;;5050585;28;20095;-63
2022/12/07 02:24:09;;;;;;;26.30;6.40;;;16.70;65.50;;;;;;5054369;28;20089;-63
2022/12/07 02:27:02;;;;;;;25.70;5.70;;;16.60;65.70;;;;;;5055884;28;20246;-63
2022/12/07 02:29:44;;;;;;;43.55;6.00;;;16.60;65.40;;;;;;5053858;28;20454;-63
2022/12/07 02:32:13;;;;;;;29.08;6.80;;;16.50;65.70;;;;;;5051832;28;20080;-63
2022/12/07 02:35:04;;;;;;;34.42;6.55;;;16.50;66.10;;;;;;5053518;28;20526;-63
2022/12/07 02:37:42;;;;;;;51.15;7.72;;;16.50;66.50;;;;;;5056024;28;20061;-62
2022/12/07 02:40:50;;;;;;;28.10;6.60;;;16.40;67.20;;;;;;5056228;28;20085;-63
2022/12/07 02:43:25;;;;;;;25.42;7.57;;;16.30;67.20;;;;;;5030927;28;20088;-63
2022/12/07 02:45:55;;;;;;;35.67;9.55;;;16.30;67.80;;;;;;5033305;28;20077;-63
2022/12/07 02:48:23;;;;;;;33.20;10.32;;;16.30;68.70;;;;;;5034099;28;20092;-63
2022/12/07 02:50:51;;;;;;;39.53;10.85;;;16.10;68.50;;;;;;5033232;28;20113;-63
2022/12/07 02:53:37;;;;;;;46.47;9.55;;;16.10;69.10;;;;;;5031517;28;20160;-62
2022/12/07 02:56:28;;;;;;;37.28;8.55;;;16.10;69.30;;;;;;5032767;28;20088;-63
2022/12/07 02:59:09;;;;;;;41.13;8.90;;;16.10;69.60;;;;;;5017061;28;20470;-62
2022/12/07 03:02:09;;;;;;;32.05;8.00;;;16.10;69.20;;;;;;5032850;28;20081;-62
2022/12/07 03:04:38;;;;;;;38.33;8.15;;;16.00;69.30;;;;;;5015725;28;20481;-62
2022/12/07 03:07:15;;;;;;;37.25;7.30;;;15.90;69.30;;;;;;5030420;28;20184;-62
2022/12/07 03:09:47;;;;;;;;;;;15.90;69.30;;;;;;5029190;28;20116;-61
2022/12/07 03:12:22;;;;;;;50.00;15.57;;;15.90;69.90;;;;;;5013854;28;20028;-61
2022/12/07 03:14:57;;;;;;;50.63;15.98;;;15.80;69.80;;;;;;5013301;28;20116;-62
2022/12/07 03:17:32;;;;;;;54.20;18.92;;;15.70;69.80;;;;;;5029668;28;20075;-63
2022/12/07 03:20:00;;;;;;;57.10;21.27;;;15.60;70.50;;;;;;5050039;28;20076;-62
2022/12/07 03:22:32;;;;;;;59.85;21.15;;;15.60;70.50;;;;;;5052029;28;20082;-62
2022/12/07 03:25:04;;;;;;;47.65;20.00;;;15.60;70.70;;;;;;5051228;28;20429;-62
2022/12/07 03:27:52;;;;;;;39.83;8.05;;;15.50;71.20;;;;;;5048489;28;20187;-62
2022/12/07 03:30:23;;;;;;;44.72;8.68;;;15.60;71.50;;;;;;5048236;28;20108;-64
2022/12/07 03:33:02;;;;;;;37.33;7.90;;;15.50;71.30;;;;;;5047944;28;20093;-63
2022/12/07 03:35:37;;;;;;;37.50;8.07;;;15.40;70.40;;;;;;5048674;28;20302;-60
2022/12/07 03:38:18;;;;;;;50.80;9.90;;;15.30;70.90;;;;;;5047667;28;20482;-60
2022/12/07 03:40:53;;;;;;;46.83;12.13;;;15.30;71.40;;;;;;5049664;28;20519;-62
2022/12/07 03:43:20;;;;;;;60.17;9.50;;;15.30;72.40;;;;;;5050309;28;20081;-59
2022/12/07 03:46:00;;;;;;;39.80;9.00;;;15.20;72.20;;;;;;5048855;28;20139;-62
2022/12/07 03:48:37;;;;;;;53.80;10.40;;;15.20;72.30;;;;;;5051457;28;20534;-63
2022/12/07 03:51:06;;;;;;;41.03;9.85;;;15.20;72.20;;;;;;5050980;28;20158;-62
2022/12/07 03:54:00;;;;;;;35.65;9.55;;;15.20;73.30;;;;;;5048376;28;20085;-62
2022/12/07 03:56:30;;;;;;;42.17;9.15;;;15.20;73.60;;;;;;5049908;28;20066;-63
2022/12/07 03:58:56;;;;;;;38.28;9.70;;;15.10;73.70;;;;;;5051753;28;20447;-62
2022/12/07 04:01:23;;;;;;;;;;;15.10;73.90;;;;;;5050102;28;20131;-63
2022/12/07 04:03:49;;;;;;;55.65;12.15;;;15.10;73.50;;;;;;5051336;28;19993;-61
2022/12/07 04:06:17;;;;;;;46.40;10.82;;;15.10;73.30;;;;;;5051028;28;20109;-61
2022/12/07 04:08:43;;;;;;;57.90;10.93;;;15.10;72.40;;;;;;5050891;28;20079;-63
2022/12/07 04:11:09;;;;;;;;;;;15.10;71.80;;;;;;5050878;28;20073;-62
2022/12/07 04:14:18;;;;;;;47.72;11.18;;;15.10;71.40;;;;;;5051874;28;19984;-64
2022/12/07 04:16:21;;;;;;;45.55;10.90;;;15.10;71.20;;;;;;5050658;28;20073;-62
2022/12/07 04:18:47;;;;;;;;;;;15.10;71.50;;;;;;5048931;28;20135;-62
2022/12/07 04:21:14;;;;;;;42.90;10.80;;;15.10;72.00;;;;;;5051600;28;20404;-62
2022/12/07 04:23:40;;;;;;;47.90;11.20;;;15.00;72.40;;;;;;5051270;28;20153;-62
2022/12/07 04:26:06;;;;;;;;;;;15.00;72.20;;;;;;5050782;28;20073;-63
2022/12/07 04:28:33;;;;;;;49.55;11.00;;;15.00;72.20;;;;;;5050311;28;20052;-64
2022/12/07 04:30:59;;;;;;;;;;;15.00;72.50;;;;;;5051012;28;20073;-62
2022/12/07 04:33:25;;;;;;;47.38;12.68;;;14.90;73.20;;;;;;5048940;28;19985;-62
2022/12/07 04:35:51;;;;;;;;;;;14.90;72.80;;;;;;5047664;28;20098;-61
2022/12/07 04:38:17;;;;;;;51.13;14.00;;;14.90;73.80;;;;;;5050496;28;19957;-63
2022/12/07 04:40:43;;;;;;;;;;;14.80;73.90;;;;;;5051541;28;20545;-64
2022/12/07 04:43:10;;;;;;;47.88;12.07;;;14.80;73.00;;;;;;5050742;28;20051;-61
2022/12/07 04:45:36;;;;;;;;;;;14.70;73.30;;;;;;5050243;28;20077;-63
2022/12/07 04:48:02;;;;;;;54.92;11.73;;;14.70;73.50;;;;;;5050700;28;19961;-61
2022/12/07 04:50:29;;;;;;;36.95;11.05;;;14.70;73.60;;;;;;5050111;28;20077;-61
2022/12/07 04:52:55;;;;;;;;;;;14.60;73.40;;;;;;5049396;28;20133;-63
2022/12/07 04:55:21;;;;;;;43.50;10.88;;;14.60;73.60;;;;;;5050528;28;20013;-62
2022/12/07 04:57:47;;;;;;;;;;;14.60;73.50;;;;;;5051116;28;20127;-60
2022/12/07 05:00:13;;;;;;;35.85;9.18;;;14.60;73.20;;;;;;5049324;28;20434;-61
2022/12/07 05:02:40;;;;;;;32.42;8.15;;;14.60;72.80;;;;;;5046763;28;20164;-61
2022/12/07 05:05:06;;;;;;;;;;;14.70;73.10;;;;;;5050634;28;20098;-62
2022/12/07 05:07:32;;;;;;;39.63;8.93;;;14.70;72.80;;;;;;5049910;28;19964;-62
2022/12/07 05:09:58;;;;;;;;;;;14.70;73.00;;;;;;5049241;28;20168;-62
2022/12/07 05:12:25;;;;;;;40.38;8.10;;;14.70;73.00;;;;;;5048573;28;20011;-64
2022/12/07 05:14:51;;;;;;;;;;;14.70;72.90;;;;;;5049989;28;20108;-61
2022/12/07 05:17:17;;;;;;;30.33;7.50;;;14.80;73.30;;;;;;5049980;28;19972;-62
2022/12/07 05:19:43;;;;;;;27.40;6.72;;;14.70;73.60;;;;;;5049389;28;20543;-63
2022/12/07 05:22:10;;;;;;;;;;;14.70;73.80;;;;;;5049295;28;20123;-62
2022/12/07 05:24:36;;;;;;;26.02;6.85;;;14.70;74.30;;;;;;5049827;28;20352;-62
2022/12/07 05:27:02;;;;;;;;;;;14.70;74.60;;;;;;5049726;28;20096;-61
2022/12/07 05:29:29;;;;;;;26.30;6.18;;;14.70;74.70;;;;;;5049552;28;20058;-61
2022/12/07 05:31:55;;;;;;;;;;;14.60;74.90;;;;;;5049617;28;20078;-63
2022/12/07 05:34:21;;;;;;;27.88;8.60;;;14.60;74.80;;;;;;5049306;28;20364;-63
2022/12/07 05:36:48;;;;;;;24.52;6.82;;;14.60;74.90;;;;;;5049465;28;20156;-62
2022/12/07 05:39:14;;;;;;;;;;;14.50;75.00;;;;;;5047440;28;20521;-61
2022/12/07 05:44:25;;;;;;;18.33;5.00;;;14.50;75.80;;;;;;5042140;28;20085;-64
2022/12/07 05:46:51;;;;;;;;;;;14.40;76.50;;;;;;5043894;28;20091;-62
2022/12/07 05:49:17;;;;;;;17.55;3.72;;;14.40;76.70;;;;;;5044826;28;21313;-63
2022/12/07 05:51:43;;;;;;;;;;;14.40;77.00;;;;;;5045847;28;20062;-61
2022/12/07 05:54:10;;;;;;;19.00;3.80;;;14.40;77.00;;;;;;5046068;28;20345;-64
2022/12/07 05:56:36;;;;;;;;;;;14.40;77.40;;;;;;5047878;28;20070;-61
2022/12/07 06:01:47;;;;;;;14.77;3.58;;;14.40;78.20;;;;;;5043779;28;20547;-59
2022/12/07 06:04:13;;;;;;;;;;;14.40;77.80;;;;;;5048366;28;20069;-62
2022/12/07 06:06:39;;;;;;;21.05;5.45;;;14.40;77.90;;;;;;5046353;28;20031;-62
2022/12/07 06:09:05;;;;;;;;;;;14.40;77.10;;;;;;5044109;28;20096;-64
2022/12/07 06:14:16;;;;;;;19.48;5.05;;;14.30;78.20;;;;;;5049739;28;20178;-64
2022/12/07 06:16:42;;;;;;;;;;;14.20;79.00;;;;;;5049777;28;20076;-63
2022/12/07 06:19:09;;;;;;;20.92;4.82;;;14.10;79.40;;;;;;5049669;28;20368;-60
2022/12/07 06:21:35;;;;;;;11.88;4.90;;;14.10;79.40;;;;;;5049278;28;20554;-62
2022/12/07 06:24:01;;;;;;;;;;;14.00;79.40;;;;;;5043671;28;20542;-62
2022/12/07 06:26:28;;;;;;;22.75;5.82;;;14.10;79.80;;;;;;5048414;28;20516;-64
2022/12/07 06:28:54;;;;;;;;;;;14.10;80.30;;;;;;5049707;28;20442;-63
2022/12/07 06:31:20;;;;;;;22.90;5.75;;;14.00;79.60;;;;;;5049040;28;20026;-64
2022/12/07 06:33:47;;;;;;;20.55;5.97;;;14.00;80.80;;;;;;5048600;28;20168;-63
2022/12/07 06:36:13;;;;;;;;;;;13.90;80.90;;;;;;5049179;28;20077;-62
2022/12/07 06:38:39;;;;;;;20.85;6.00;;;14.00;81.10;;;;;;5048779;28;20003;-62
2022/12/07 06:41:06;;;;;;;;;;;14.00;81.00;;;;;;5043822;28;20075;-65
2022/12/07 06:43:33;;;;;;;35.43;8.07;;;13.90;80.90;;;;;;5046075;28;19958;-63
2022/12/07 06:45:59;;;;;;;41.97;23.83;;;13.90;80.80;;;;;;5052848;28;20081;-64
2022/12/07 06:48:25;;;;;;;;;;;13.80;81.30;;;;;;5049350;28;20077;-64
2022/12/07 06:50:51;;;;;;;32.28;8.27;;;13.80;81.20;;;;;;5048347;28;19953;-62
2022/12/07 06:53:18;;;;;;;39.70;9.55;;;13.80;80.70;;;;;;5053286;28;20160;-62
2022/12/07 06:55:44;;;;;;;;;;;13.70;80.70;;;;;;5053278;28;20545;-63
2022/12/07 06:58:10;;;;;;;29.65;9.15;;;13.70;81.30;;;;;;5053416;28;19961;-62
2022/12/07 07:00:36;;;;;;;;;;;13.70;81.40;;;;;;5052246;28;20207;-62
2022/12/07 07:03:03;;;;;;;38.40;8.85;;;13.70;81.20;;;;;;5051880;28;20015;-62
2022/12/07 07:05:29;;;;;;;45.50;10.80;;;13.70;81.80;;;;;;5048910;28;20101;-62
2022/12/07 07:07:55;;;;;;;;;;;13.70;81.70;;;;;;5051127;28;20073;-62
2022/12/07 07:10:22;;;;;;;64.22;12.85;;;13.60;81.50;;;;;;5052065;28;19964;-63
2022/12/07 07:12:48;;;;;;;;;;;13.60;82.10;;;;;;5052235;28;20206;-62
2022/12/07 07:15:14;;;;;;;68.63;18.13;;;13.70;82.20;;;;;;5052073;28;20083;-64
2022/12/07 07:17:40;;;;;;;68.28;19.02;;;13.60;81.80;;;;;;5050496;28;20072;-63
2022/12/07 07:20:07;;;;;;;;;;;13.50;81.80;;;;;;5053294;28;20136;-62
2022/12/07 07:22:33;;;;;;;72.78;20.05;;;13.50;82.40;;;;;;5047914;28;20402;-63
2022/12/07 07:24:59;;;;;;;;;;;13.60;81.90;;;;;;5045954;28;20179;-61
2022/12/07 07:27:25;;;;;;;57.75;18.48;;;13.50;81.90;;;;;;5050747;28;20103;-61
2022/12/07 07:29:52;;;;;;;78.13;20.48;;;13.50;82.30;;;;;;5052411;28;20077;-63
2022/12/07 07:32:18;;;;;;;;;;;13.50;82.60;;;;;;5052805;28;20579;-61
2022/12/07 07:34:44;;;;;;;75.47;19.27;;;13.50;82.70;;;;;;5048338;28;20445;-59
2022/12/07 07:37:12;;;;;;;;;;;13.50;82.90;;;;;;5046665;28;20514;-63
2022/12/07 07:39:38;;;;;;;65.55;20.90;;;13.40;82.90;;;;;;5047459;28;20035;-63
2022/12/07 07:42:05;;;;;;;69.53;20.30;;;13.40;83.90;;;;;;5052640;28;20085;-64
2022/12/07 07:44:32;;;;;;;71.72;19.88;;;13.30;83.50;;;;;;5053175;28;20114;-63
2022/12/07 07:46:58;;;;;;;;;;;13.30;84.10;;;;;;5052574;28;20080;-63
2022/12/07 07:49:24;;;;;;;59.78;19.02;;;13.40;84.10;;;;;;5051538;28;20060;-63
2022/12/07 07:51:50;;;;;;;;;;;13.40;84.20;;;;;;5050775;28;20109;-63
2022/12/07 07:54:17;;;;;;;61.55;20.73;;;13.40;83.70;;;;;;5052361;28;19973;-62
2022/12/07 07:56:43;;;;;;;57.75;21.70;;;13.40;84.20;;;;;;5051626;28;20546;-63
2022/12/07 07:59:09;;;;;;;;;;;13.30;85.00;;;;;;5052144;28;20359;-63
2022/12/07 08:01:35;;;;;;;74.20;21.65;;;13.30;85.30;;;;;;5049521;28;20451;-63
2022/12/07 08:04:01;;;;;;;;;;;13.30;85.00;;;;;;5044153;28;20140;-62
2022/12/07 08:06:28;;;;;;;71.80;21.88;;;13.30;84.90;;;;;;5051645;28;19981;-61
2022/12/07 08:08:54;;;;;;;;;;;13.30;85.40;;;;;;5051972;28;20081;-63
2022/12/07 08:11:20;;;;;;;78.90;19.67;;;13.20;86.00;;;;;;5047464;28;19964;-62
2022/12/07 08:13:46;;;;;;;;;;;13.20;85.60;;;;;;5053043;28;20082;-61
2022/12/07 08:16:14;;;;;;;64.88;18.80;;;13.20;85.50;;;;;;5050860;28;20306;-64
2022/12/07 08:18:42;;;;;;;67.32;21.67;;;13.20;85.40;;;;;;5052045;28;20073;-65
2022/12/07 08:21:11;;;;;;;68.82;20.77;;;13.20;85.50;;;;;;5049067;28;20077;-62
2022/12/07 08:23:38;;;;;;;63.83;21.13;;;13.20;86.30;;;;;;5051541;28;20088;-61
2022/12/07 08:26:13;;;;;;;69.45;23.10;;;13.10;86.30;;;;;;5050595;28;20116;-63
2022/12/07 08:28:40;;;;;;;85.50;29.17;;;13.00;86.30;;;;;;5050298;28;20073;-62
2022/12/07 08:31:10;;;;;;;84.10;29.15;;;13.10;86.20;;;;;;5051441;28;20534;-63
2022/12/07 08:33:37;;;;;;;108.82;30.73;;;13.10;85.90;;;;;;5051174;28;20551;-64
2022/12/07 08:36:09;;;;;;;96.25;29.13;;;13.10;85.40;;;;;;5049258;28;20083;-63
2022/12/07 08:38:38;;;;;;;106.32;29.80;;;13.10;85.80;;;;;;5050321;28;20112;-61
2022/12/07 08:41:05;;;;;;;109.07;31.05;;;12.90;86.10;;;;;;5051434;28;20078;-62
2022/12/07 08:43:31;;;;;;;97.32;30.40;;;12.90;86.40;;;;;;5049477;28;20086;-62
2022/12/07 08:46:33;;;;;;;84.22;27.65;;;13.00;86.50;;;;;;5048515;28;20163;-63
2022/12/07 08:49:04;;;;;;;97.18;29.58;;;13.00;86.10;;;;;;5050677;28;20100;-63
2022/12/07 08:51:31;;;;;;;94.45;28.58;;;12.90;86.80;;;;;;5047504;28;20081;-62
2022/12/07 08:54:01;;;;;;;99.65;28.60;;;12.90;86.70;;;;;;5051053;28;20451;-62
2022/12/07 08:56:28;;;;;;;93.10;28.70;;;12.90;86.90;;;;;;5051049;28;20172;-61
2022/12/07 08:58:54;;;;;;;90.70;29.10;;;12.90;87.20;;;;;;5049900;28;20531;-63
2022/12/07 09:01:20;;;;;;;;;;;12.90;87.50;;;;;;5050435;28;20075;-63
2022/12/07 09:03:46;;;;;;;101.03;28.83;;;12.90;87.70;;;;;;5048670;28;20011;-63
2022/12/07 09:06:12;;;;;;;;;;;12.90;87.60;;;;;;5046120;28;20111;-65
2022/12/07 09:08:47;;;;;;;87.57;29.58;;;12.60;88.20;;;;;;5048971;28;19964;-65
2022/12/07 09:11:13;;;;;;;105.57;31.77;;;12.70;89.30;;;;;;5049393;28;20073;-65
2022/12/07 09:13:40;;;;;;;103.95;35.78;;;12.70;88.90;;;;;;5050342;28;20529;-64
2022/12/07 09:16:06;;;;;;;;;;;12.70;88.30;;;;;;5050316;28;20069;-65
2022/12/07 09:18:32;;;;;;;106.43;34.33;;;12.70;88.80;;;;;;5050746;28;19964;-65
2022/12/07 09:20:59;;;;;;;100.82;34.13;;;12.60;88.70;;;;;;5050749;28;20105;-66
2022/12/07 09:23:25;;;;;;;;;;;12.70;89.00;;;;;;5050592;28;20152;-66
2022/12/07 09:25:51;;;;;;;97.68;29.90;;;12.70;88.60;;;;;;5049675;28;19977;-65
2022/12/07 09:28:18;;;;;;;101.20;30.55;;;12.70;88.30;;;;;;5049458;28;21414;-66
2022/12/07 09:30:48;;;;;;;92.55;30.40;;;12.70;87.70;;;;;;5047626;28;20438;-64
2022/12/07 09:33:15;;;;;;;80.75;31.15;;;12.70;88.20;;;;;;5049154;28;20073;-66
2022/12/07 09:35:50;;;;;;;83.93;30.27;;;12.70;88.80;;;;;;5049715;28;20499;-62
2022/12/07 09:38:17;;;;;;;89.78;31.20;;;12.80;89.00;;;;;;5049049;28;20130;-66
2022/12/07 09:40:44;;;;;;;92.20;29.17;;;12.80;88.70;;;;;;5050119;28;20135;-64
2022/12/07 09:43:20;;;;;;;88.43;29.58;;;12.90;88.70;;;;;;5049860;28;20127;-65
2022/12/07 09:45:49;;;;;;;81.78;30.52;;;13.00;88.50;;;;;;5050346;28;20066;-64
2022/12/07 09:48:32;;;;;;;78.22;27.00;;;13.00;88.20;;;;;;5048077;28;20084;-63
2022/12/07 09:51:00;;;;;;;77.15;27.02;;;13.00;88.10;;;;;;5049009;28;20131;-65
2022/12/07 09:53:46;;;;;;;88.38;27.67;;;13.00;88.10;;;;;;5046855;28;20085;-62
2022/12/07 09:56:17;;;;;;;77.10;25.63;;;13.00;88.70;;;;;;5048425;28;20062;-63
2022/12/07 09:58:45;;;;;;;82.25;24.25;;;13.00;88.30;;;;;;5049506;28;20078;-65
2022/12/07 10:01:15;;;;;;;67.82;24.52;;;13.00;88.00;;;;;;5047298;28;20080;-68
2022/12/07 10:03:55;;;;;;;74.18;24.25;;;13.00;88.40;;;;;;5045683;28;20070;-63
2022/12/07 10:06:22;;;;;;;76.28;25.00;;;13.10;88.40;;;;;;5049596;28;20469;-65
2022/12/07 10:08:48;;;;;;;70.70;22.65;;;13.20;88.20;;;;;;5049353;28;20080;-65
2022/12/07 10:11:15;;;;;;;;;;;13.20;88.00;;;;;;5049359;28;20077;-65
2022/12/07 10:13:47;;;;;;;61.40;19.83;;;13.20;87.90;;;;;;5049135;28;19977;-61
2022/12/07 10:16:31;;;;;;;65.72;19.35;;;13.20;87.60;;;;;;5050434;28;20066;-64
2022/12/07 10:19:26;;;;;;;54.28;18.15;;;13.20;88.00;;;;;;5052500;28;20073;-66
2022/12/07 10:22:13;;;;;;;69.13;18.48;;;13.20;87.90;;;;;;5053276;28;20086;-65
2022/12/07 10:24:46;;;;;;;62.63;17.27;;;13.20;87.70;;;;;;5052253;28;20080;-67
2022/12/07 10:27:19;;;;;;;56.08;17.60;;;13.30;87.50;;;;;;5051807;28;20085;-64
2022/12/07 10:29:53;;;;;;;47.30;15.75;;;13.30;87.50;;;;;;5052297;28;20574;-63
2022/12/07 10:32:19;;;;;;;50.47;14.98;;;13.40;87.20;;;;;;5053593;28;20423;-66
2022/12/07 10:34:46;;;;;;;44.00;16.00;;;13.40;87.20;;;;;;5052829;28;20086;-66
2022/12/07 10:37:19;;;;;;;48.03;14.60;;;13.40;87.00;;;;;;5052614;28;20085;-64
2022/12/07 10:39:47;;;;;;;41.05;14.13;;;13.40;87.50;;;;;;5052220;28;20535;-65
2022/12/07 10:42:25;;;;;;;45.33;13.73;;;13.50;87.70;;;;;;5053393;28;20113;-65
2022/12/07 10:45:12;;;;;;;36.17;12.55;;;13.50;87.70;;;;;;5051191;28;20077;-65
2022/12/07 10:48:15;;;;;;;38.25;11.98;;;13.40;87.20;;;;;;5051233;28;20474;-64
2022/12/07 10:51:00;;;;;;;34.40;12.30;;;13.40;86.70;;;;;;5051197;28;20085;-63
2022/12/07 10:53:51;;;;;;;44.30;12.63;;;13.40;86.10;;;;;;5050000;28;20105;-65
2022/12/07 10:56:27;;;;;;;35.20;13.32;;;13.40;85.70;;;;;;5053043;28;20100;-67
2022/12/07 10:59:10;;;;;;;32.08;11.90;;;13.30;85.90;;;;;;5051411;28;20097;-66
2022/12/07 11:01:55;;;;;;;35.30;12.10;;;13.40;86.00;;;;;;5052313;28;20069;-67
2022/12/07 11:04:47;;;;;;;32.70;11.48;;;13.40;85.10;;;;;;5052161;28;20073;-65
2022/12/07 11:07:38;;;;;;;28.52;10.52;;;13.30;85.70;;;;;;5051276;28;20144;-65
2022/12/07 11:10:29;;;;;;;31.35;10.13;;;13.40;85.00;;;;;;5051359;28;20086;-63
2022/12/07 11:13:25;;;;;;;18.83;7.85;;;13.40;84.20;;;;;;5051268;28;20450;-63
2022/12/07 11:16:21;;;;;;;16.50;6.50;;;13.40;82.80;;;;;;5053430;28;20081;-65
2022/12/07 11:19:14;;;;;;;19.27;6.82;;;13.40;82.20;;;;;;5051366;28;20077;-67
2022/12/07 11:22:09;;;;;;;15.57;6.22;;;13.50;81.50;;;;;;5052115;28;20537;-64
2022/12/07 11:25:11;;;;;;;11.98;4.55;;;13.50;80.90;;;;;;5052297;28;20066;-63
2022/12/07 11:27:44;;;;;;;16.33;5.13;;;13.60;80.40;;;;;;5048215;28;20086;-64
2022/12/07 11:30:37;;;;;;;12.35;4.40;;;13.70;79.30;;;;;;5047295;28;20101;-65
2022/12/07 11:33:36;;;;;;;9.38;3.80;;;13.70;79.30;;;;;;5046728;28;20081;-66
2022/12/07 11:36:33;;;;;;;10.98;3.78;;;13.80;78.50;;;;;;5045884;28;20069;-65
2022/12/07 11:39:14;;;;;;;8.27;3.72;;;13.90;77.70;;;;;;5046251;28;20070;-65
2022/12/07 11:41:42;;;;;;;6.07;3.28;;;14.00;77.30;;;;;;5043708;28;20181;-63
2022/12/07 11:44:23;;;;;;;7.32;3.75;;;14.10;77.10;;;;;;5045408;28;20078;-65
2022/12/07 11:47:13;;;;;;;10.98;3.55;;;14.20;77.30;;;;;;5045684;28;20100;-66
2022/12/07 11:49:45;;;;;;;7.20;3.30;;;14.10;77.70;;;;;;5045364;28;20085;-65
2022/12/07 11:52:37;;;;;;;11.18;3.30;;;14.10;78.50;;;;;;5044646;28;20530;-65
2022/12/07 11:55:13;;;;;;;9.07;2.92;;;14.10;78.90;;;;;;5046919;28;20085;-65
2022/12/07 11:57:46;;;;;;;10.32;2.90;;;14.10;78.90;;;;;;5046831;28;20081;-59
2022/12/07 12:00:17;;;;;;;7.30;2.58;;;14.20;78.40;;;;;;5047011;28;20158;-65
2022/12/07 12:02:56;;;;;;;10.05;2.90;;;14.20;78.60;;;;;;5045348;28;20094;-65
2022/12/07 12:05:25;;;;;;;9.23;2.75;;;14.20;78.70;;;;;;5046691;28;20113;-65
2022/12/07 12:08:01;;;;;;;8.23;2.90;;;14.30;78.70;;;;;;5045407;28;20070;-65
2022/12/07 12:10:27;;;;;;;7.53;2.97;;;14.20;78.70;;;;;;5046395;28;20073;-66
2022/12/07 12:13:16;;;;;;;;;;;14.20;78.20;;;;;;5046714;28;20486;-65
2022/12/07 12:16:20;;;;;;;13.68;3.20;;;14.20;78.90;;;;;;5028897;28;19966;-65
2022/12/07 12:19:09;;;;;;;7.40;2.97;;;14.10;79.30;;;;;;5044657;28;20073;-65
2022/12/07 12:21:36;;;;;;;8.02;3.00;;;14.10;79.50;;;;;;5044288;28;20076;-65
2022/12/07 12:24:14;;;;;;;12.07;3.10;;;14.20;77.60;;;;;;5046923;28;20070;-64
2022/12/07 12:26:52;;;;;;;8.60;2.95;;;14.10;77.20;;;;;;5045555;28;20073;-65
2022/12/07 12:29:43;;;;;;;9.75;3.15;;;14.20;76.60;;;;;;5045379;28;20073;-64
2022/12/07 12:32:31;;;;;;;8.48;2.72;;;14.20;75.70;;;;;;5043593;28;20131;-65
2022/12/07 12:34:59;;;;;;;11.50;2.80;;;14.20;74.80;;;;;;5044627;28;20085;-65
2022/12/07 12:37:35;;;;;;;8.23;2.67;;;14.30;73.50;;;;;;5044268;28;20078;-66
2022/12/07 12:40:16;;;;;;;11.57;2.97;;;14.30;73.00;;;;;;5044979;28;20073;-66
2022/12/07 12:42:47;;;;;;;7.30;2.45;;;14.40;73.30;;;;;;5045867;28;20088;-64
2022/12/07 12:45:25;;;;;;;6.72;2.70;;;14.40;72.70;;;;;;5046392;28;20522;-66
2022/12/07 12:48:35;;;;;;;7.57;2.50;;;14.40;72.30;;;;;;5044469;28;20096;-64
2022/12/07 12:51:35;;;;;;;11.82;2.75;;;14.40;72.20;;;;;;5041023;28;20089;-65
2022/12/07 12:54:11;;;;;;;11.20;2.90;;;14.40;71.80;;;;;;5046786;28;20101;-64
2022/12/07 12:56:46;;;;;;;10.30;3.03;;;14.40;71.60;;;;;;5047869;28;20069;-66
2022/12/07 12:59:31;;;;;;;7.53;2.90;;;14.40;70.60;;;;;;5048489;28;20127;-64
2022/12/07 13:02:35;;;;;;;9.30;2.70;;;14.40;70.80;;;;;;5045847;28;20076;-64
2022/12/07 13:05:07;;;;;;;8.80;2.92;;;14.40;70.50;;;;;;5038848;28;20105;-65
2022/12/07 13:07:55;;;;;;;7.03;2.55;;;14.40;70.00;;;;;;5045735;28;20140;-64
2022/12/07 13:10:25;;;;;;;11.32;3.10;;;14.40;69.50;;;;;;5045181;28;20199;-65
2022/12/07 13:13:22;;;;;;;6.35;2.53;;;14.40;69.50;;;;;;5046432;28;20115;-67
2022/12/07 13:15:54;;;;;;;10.20;2.88;;;14.50;69.60;;;;;;5047038;28;20074;-64
2022/12/07 13:18:30;;;;;;;9.23;2.33;;;14.50;69.50;;;;;;5045999;28;20113;-64
2022/12/07 13:21:01;;;;;;;7.95;2.45;;;14.50;69.40;;;;;;5044421;28;20153;-65
2022/12/07 13:23:36;;;;;;;9.57;3.15;;;14.50;69.20;;;;;;5044326;28;20085;-65